Terminal Aerodrome Forecast
Issued by NWS Amarillo, TX

Home | Current Version | Previous Version | Text Only | Print | Product List | Glossary On
Versions: 1 2 3 4 5 6 7 8 9 10 11 12 13 14 15 16 17
000
FTUS44 KAMA 181720
TAFDHT
TAF
KDHT 181720Z 1818/1918 26008KT P6SM SKC
      TEMPO 1819/1823 21013G23KT
     FM191500 36015KT P6SM FEW200=

USA.gov is the U.S. government's official web portal to all federal, state and local government web resources and services.